sensor_id;sensor_type;location;lat;lon;timestamp;P1;durP1;ratioP1;P2;durP2;ratioP2
37903;SDS011;23738;50.422;18.758;2023-07-13T00:01:36;4.90;;;3.30;;
37903;SDS011;23738;50.422;18.758;2023-07-13T00:04:05;7.60;;;3.80;;
37903;SDS011;23738;50.422;18.758;2023-07-13T00:06:34;6.70;;;3.90;;
37903;SDS011;23738;50.422;18.758;2023-07-13T00:09:04;5.80;;;3.50;;
37903;SDS011;23738;50.422;18.758;2023-07-13T00:11:33;4.90;;;3.60;;
37903;SDS011;23738;50.422;18.758;2023-07-13T00:14:03;4.70;;;4.20;;
37903;SDS011;23738;50.422;18.758;2023-07-13T00:16:32;7.80;;;3.80;;
37903;SDS011;23738;50.422;18.758;2023-07-13T00:19:03;7.70;;;3.60;;
37903;SDS011;23738;50.422;18.758;2023-07-13T00:21:32;4.30;;;3.70;;
37903;SDS011;23738;50.422;18.758;2023-07-13T00:24:02;5.00;;;3.70;;
37903;SDS011;23738;50.422;18.758;2023-07-13T00:26:32;6.50;;;4.10;;
37903;SDS011;23738;50.422;18.758;2023-07-13T00:29:02;3.70;;;3.30;;
37903;SDS011;23738;50.422;18.758;2023-07-13T00:31:35;5.50;;;4.50;;
37903;SDS011;23738;50.422;18.758;2023-07-13T00:34:04;4.10;;;3.70;;
37903;SDS011;23738;50.422;18.758;2023-07-13T00:36:33;4.30;;;3.60;;
37903;SDS011;23738;50.422;18.758;2023-07-13T00:39:03;4.60;;;3.60;;
37903;SDS011;23738;50.422;18.758;2023-07-13T00:41:32;4.80;;;3.30;;
37903;SDS011;23738;50.422;18.758;2023-07-13T00:44:03;5.30;;;3.40;;
37903;SDS011;23738;50.422;18.758;2023-07-13T00:46:33;4.30;;;3.10;;
37903;SDS011;23738;50.422;18.758;2023-07-13T00:49:04;4.40;;;3.80;;
37903;SDS011;23738;50.422;18.758;2023-07-13T00:51:36;6.00;;;3.30;;
37903;SDS011;23738;50.422;18.758;2023-07-13T00:54:09;4.10;;;3.20;;
37903;SDS011;23738;50.422;18.758;2023-07-13T00:56:41;3.70;;;3.40;;
37903;SDS011;23738;50.422;18.758;2023-07-13T00:59:14;7.30;;;3.50;;
37903;SDS011;23738;50.422;18.758;2023-07-13T01:01:45;6.50;;;4.30;;
37903;SDS011;23738;50.422;18.758;2023-07-13T01:04:15;5.00;;;3.70;;
37903;SDS011;23738;50.422;18.758;2023-07-13T01:06:45;4.00;;;3.30;;
37903;SDS011;23738;50.422;18.758;2023-07-13T01:09:15;3.30;;;2.90;;
37903;SDS011;23738;50.422;18.758;2023-07-13T01:11:45;5.90;;;4.10;;
37903;SDS011;23738;50.422;18.758;2023-07-13T01:14:15;5.00;;;3.50;;
37903;SDS011;23738;50.422;18.758;2023-07-13T01:16:45;4.50;;;2.80;;
37903;SDS011;23738;50.422;18.758;2023-07-13T01:19:21;3.20;;;2.80;;
37903;SDS011;23738;50.422;18.758;2023-07-13T01:22:04;4.30;;;3.20;;
37903;SDS011;23738;50.422;18.758;2023-07-13T01:24:38;4.50;;;3.50;;
37903;SDS011;23738;50.422;18.758;2023-07-13T01:27:11;4.40;;;3.00;;
37903;SDS011;23738;50.422;18.758;2023-07-13T01:29:43;3.00;;;2.80;;
37903;SDS011;23738;50.422;18.758;2023-07-13T01:32:14;3.90;;;3.20;;
37903;SDS011;23738;50.422;18.758;2023-07-13T01:34:50;4.00;;;2.40;;
37903;SDS011;23738;50.422;18.758;2023-07-13T01:37:21;5.20;;;3.20;;
37903;SDS011;23738;50.422;18.758;2023-07-13T01:39:51;4.20;;;3.50;;
37903;SDS011;23738;50.422;18.758;2023-07-13T01:42:21;3.40;;;3.00;;
37903;SDS011;23738;50.422;18.758;2023-07-13T01:44:50;6.30;;;4.20;;
37903;SDS011;23738;50.422;18.758;2023-07-13T01:47:19;4.20;;;3.60;;
37903;SDS011;23738;50.422;18.758;2023-07-13T01:49:49;6.20;;;3.50;;
37903;SDS011;23738;50.422;18.758;2023-07-13T01:52:19;12.00;;;4.00;;
37903;SDS011;23738;50.422;18.758;2023-07-13T01:54:48;6.40;;;4.60;;
37903;SDS011;23738;50.422;18.758;2023-07-13T01:57:18;5.80;;;4.20;;
37903;SDS011;23738;50.422;18.758;2023-07-13T01:59:47;5.20;;;3.50;;
37903;SDS011;23738;50.422;18.758;2023-07-13T02:02:17;5.00;;;3.30;;
37903;SDS011;23738;50.422;18.758;2023-07-13T02:04:46;7.40;;;3.40;;
37903;SDS011;23738;50.422;18.758;2023-07-13T02:07:15;5.40;;;3.60;;
37903;SDS011;23738;50.422;18.758;2023-07-13T02:09:45;6.50;;;4.20;;
37903;SDS011;23738;50.422;18.758;2023-07-13T02:12:14;12.50;;;3.90;;
37903;SDS011;23738;50.422;18.758;2023-07-13T02:14:43;4.20;;;3.10;;
37903;SDS011;23738;50.422;18.758;2023-07-13T02:17:13;4.50;;;3.30;;
37903;SDS011;23738;50.422;18.758;2023-07-13T02:19:42;4.20;;;3.00;;
37903;SDS011;23738;50.422;18.758;2023-07-13T02:22:12;5.90;;;3.40;;
37903;SDS011;23738;50.422;18.758;2023-07-13T02:24:41;7.10;;;3.10;;
37903;SDS011;23738;50.422;18.758;2023-07-13T02:27:11;10.20;;;3.90;;
37903;SDS011;23738;50.422;18.758;2023-07-13T02:29:40;6.30;;;3.60;;
37903;SDS011;23738;50.422;18.758;2023-07-13T02:32:09;8.30;;;3.40;;
37903;SDS011;23738;50.422;18.758;2023-07-13T02:34:40;10.70;;;3.30;;
37903;SDS011;23738;50.422;18.758;2023-07-13T02:37:09;8.10;;;3.70;;
37903;SDS011;23738;50.422;18.758;2023-07-13T02:39:39;8.40;;;3.60;;
37903;SDS011;23738;50.422;18.758;2023-07-13T02:42:08;6.90;;;3.40;;
37903;SDS011;23738;50.422;18.758;2023-07-13T02:44:37;5.60;;;3.30;;
37903;SDS011;23738;50.422;18.758;2023-07-13T02:47:07;8.40;;;3.40;;
37903;SDS011;23738;50.422;18.758;2023-07-13T02:49:37;8.90;;;3.50;;
37903;SDS011;23738;50.422;18.758;2023-07-13T02:52:07;8.20;;;4.00;;
37903;SDS011;23738;50.422;18.758;2023-07-13T02:54:36;7.40;;;3.20;;
37903;SDS011;23738;50.422;18.758;2023-07-13T02:57:06;7.10;;;3.50;;
37903;SDS011;23738;50.422;18.758;2023-07-13T02:59:36;5.60;;;3.20;;
37903;SDS011;23738;50.422;18.758;2023-07-13T03:02:05;4.90;;;3.20;;
37903;SDS011;23738;50.422;18.758;2023-07-13T03:04:36;9.50;;;3.60;;
37903;SDS011;23738;50.422;18.758;2023-07-13T03:07:06;7.80;;;3.10;;
37903;SDS011;23738;50.422;18.758;2023-07-13T03:09:35;6.00;;;3.30;;
37903;SDS011;23738;50.422;18.758;2023-07-13T03:12:06;7.00;;;3.50;;
37903;SDS011;23738;50.422;18.758;2023-07-13T03:14:36;4.90;;;2.70;;
37903;SDS011;23738;50.422;18.758;2023-07-13T03:17:05;13.80;;;2.90;;
37903;SDS011;23738;50.422;18.758;2023-07-13T03:19:35;4.80;;;3.40;;
37903;SDS011;23738;50.422;18.758;2023-07-13T03:22:05;4.40;;;2.80;;
37903;SDS011;23738;50.422;18.758;2023-07-13T03:24:35;7.90;;;4.00;;
37903;SDS011;23738;50.422;18.758;2023-07-13T03:27:05;5.80;;;3.70;;
37903;SDS011;23738;50.422;18.758;2023-07-13T03:29:35;7.10;;;3.00;;
37903;SDS011;23738;50.422;18.758;2023-07-13T03:32:05;8.60;;;3.60;;
37903;SDS011;23738;50.422;18.758;2023-07-13T03:34:36;7.70;;;4.20;;
37903;SDS011;23738;50.422;18.758;2023-07-13T03:37:05;5.10;;;3.50;;
37903;SDS011;23738;50.422;18.758;2023-07-13T03:39:35;5.00;;;3.10;;
37903;SDS011;23738;50.422;18.758;2023-07-13T03:42:05;9.70;;;3.50;;
37903;SDS011;23738;50.422;18.758;2023-07-13T03:44:35;4.30;;;2.80;;
37903;SDS011;23738;50.422;18.758;2023-07-13T03:47:07;7.70;;;3.90;;
37903;SDS011;23738;50.422;18.758;2023-07-13T03:49:37;7.60;;;3.50;;
37903;SDS011;23738;50.422;18.758;2023-07-13T03:52:07;8.30;;;4.80;;
37903;SDS011;23738;50.422;18.758;2023-07-13T03:54:37;10.70;;;4.90;;
37903;SDS011;23738;50.422;18.758;2023-07-13T03:57:07;6.80;;;3.40;;
37903;SDS011;23738;50.422;18.758;2023-07-13T03:59:38;10.80;;;3.70;;
37903;SDS011;23738;50.422;18.758;2023-07-13T04:02:07;6.60;;;4.40;;
37903;SDS011;23738;50.422;18.758;2023-07-13T04:04:37;10.60;;;4.60;;
37903;SDS011;23738;50.422;18.758;2023-07-13T04:07:07;5.40;;;4.70;;
37903;SDS011;23738;50.422;18.758;2023-07-13T04:09:37;11.20;;;4.80;;
37903;SDS011;23738;50.422;18.758;2023-07-13T04:12:08;6.60;;;4.00;;
37903;SDS011;23738;50.422;18.758;2023-07-13T04:14:37;6.40;;;5.10;;
37903;SDS011;23738;50.422;18.758;2023-07-13T04:17:07;7.50;;;5.80;;
37903;SDS011;23738;50.422;18.758;2023-07-13T04:19:36;14.20;;;5.90;;
37903;SDS011;23738;50.422;18.758;2023-07-13T04:22:06;9.80;;;5.30;;
37903;SDS011;23738;50.422;18.758;2023-07-13T04:24:36;7.30;;;3.90;;
37903;SDS011;23738;50.422;18.758;2023-07-13T04:27:06;7.10;;;3.80;;
37903;SDS011;23738;50.422;18.758;2023-07-13T04:29:35;9.50;;;5.00;;
37903;SDS011;23738;50.422;18.758;2023-07-13T04:32:05;15.00;;;5.90;;
37903;SDS011;23738;50.422;18.758;2023-07-13T04:34:35;10.80;;;5.50;;
37903;SDS011;23738;50.422;18.758;2023-07-13T04:37:05;11.80;;;4.60;;
37903;SDS011;23738;50.422;18.758;2023-07-13T04:39:34;10.50;;;5.00;;
37903;SDS011;23738;50.422;18.758;2023-07-13T04:42:05;10.00;;;4.80;;
37903;SDS011;23738;50.422;18.758;2023-07-13T04:44:35;8.80;;;5.20;;
37903;SDS011;23738;50.422;18.758;2023-07-13T04:47:05;6.40;;;4.70;;
37903;SDS011;23738;50.422;18.758;2023-07-13T04:49:34;8.50;;;4.60;;
37903;SDS011;23738;50.422;18.758;2023-07-13T04:52:04;9.10;;;5.00;;
37903;SDS011;23738;50.422;18.758;2023-07-13T04:54:35;14.00;;;6.30;;
37903;SDS011;23738;50.422;18.758;2023-07-13T04:57:06;7.50;;;6.30;;
37903;SDS011;23738;50.422;18.758;2023-07-13T04:59:35;8.50;;;6.10;;
37903;SDS011;23738;50.422;18.758;2023-07-13T05:02:05;13.70;;;7.30;;
37903;SDS011;23738;50.422;18.758;2023-07-13T05:04:34;8.80;;;6.90;;
37903;SDS011;23738;50.422;18.758;2023-07-13T05:07:04;11.40;;;7.90;;
37903;SDS011;23738;50.422;18.758;2023-07-13T05:09:34;12.60;;;7.70;;
37903;SDS011;23738;50.422;18.758;2023-07-13T05:12:04;9.60;;;6.60;;
37903;SDS011;23738;50.422;18.758;2023-07-13T05:14:35;10.70;;;6.70;;
37903;SDS011;23738;50.422;18.758;2023-07-13T05:17:04;7.70;;;6.80;;
37903;SDS011;23738;50.422;18.758;2023-07-13T05:19:33;10.10;;;7.50;;
37903;SDS011;23738;50.422;18.758;2023-07-13T05:22:03;10.30;;;7.30;;
37903;SDS011;23738;50.422;18.758;2023-07-13T05:24:33;11.20;;;8.30;;
37903;SDS011;23738;50.422;18.758;2023-07-13T05:27:02;9.20;;;7.90;;
37903;SDS011;23738;50.422;18.758;2023-07-13T05:29:33;11.10;;;7.70;;
37903;SDS011;23738;50.422;18.758;2023-07-13T05:32:02;10.10;;;7.70;;
37903;SDS011;23738;50.422;18.758;2023-07-13T05:34:33;10.80;;;7.30;;
37903;SDS011;23738;50.422;18.758;2023-07-13T05:37:02;10.10;;;7.30;;
37903;SDS011;23738;50.422;18.758;2023-07-13T05:39:32;12.70;;;8.10;;
37903;SDS011;23738;50.422;18.758;2023-07-13T05:42:01;13.80;;;7.70;;
37903;SDS011;23738;50.422;18.758;2023-07-13T05:44:31;8.50;;;7.30;;
37903;SDS011;23738;50.422;18.758;2023-07-13T05:47:01;11.90;;;7.70;;
37903;SDS011;23738;50.422;18.758;2023-07-13T05:49:30;13.30;;;8.40;;
37903;SDS011;23738;50.422;18.758;2023-07-13T05:52:00;11.80;;;8.30;;
37903;SDS011;23738;50.422;18.758;2023-07-13T05:54:29;14.60;;;8.30;;
37903;SDS011;23738;50.422;18.758;2023-07-13T05:56:58;13.30;;;7.90;;
37903;SDS011;23738;50.422;18.758;2023-07-13T05:59:28;9.50;;;7.90;;
37903;SDS011;23738;50.422;18.758;2023-07-13T06:01:57;10.10;;;7.90;;
37903;SDS011;23738;50.422;18.758;2023-07-13T06:04:26;9.60;;;7.70;;
37903;SDS011;23738;50.422;18.758;2023-07-13T06:06:58;11.60;;;7.60;;
37903;SDS011;23738;50.422;18.758;2023-07-13T06:09:28;11.00;;;7.30;;
37903;SDS011;23738;50.422;18.758;2023-07-13T06:11:57;8.80;;;7.00;;
37903;SDS011;23738;50.422;18.758;2023-07-13T06:14:26;9.80;;;7.80;;
37903;SDS011;23738;50.422;18.758;2023-07-13T06:16:55;9.10;;;8.00;;
37903;SDS011;23738;50.422;18.758;2023-07-13T06:19:25;14.00;;;10.00;;
37903;SDS011;23738;50.422;18.758;2023-07-13T06:21:54;9.50;;;8.30;;
37903;SDS011;23738;50.422;18.758;2023-07-13T06:24:25;13.00;;;8.30;;
37903;SDS011;23738;50.422;18.758;2023-07-13T06:26:54;11.10;;;8.00;;
37903;SDS011;23738;50.422;18.758;2023-07-13T06:29:23;12.80;;;9.30;;
37903;SDS011;23738;50.422;18.758;2023-07-13T06:31:53;14.40;;;10.40;;
37903;SDS011;23738;50.422;18.758;2023-07-13T06:34:22;11.30;;;10.10;;
37903;SDS011;23738;50.422;18.758;2023-07-13T06:36:51;11.00;;;9.80;;
37903;SDS011;23738;50.422;18.758;2023-07-13T06:39:21;14.70;;;10.10;;
37903;SDS011;23738;50.422;18.758;2023-07-13T06:41:50;12.40;;;7.70;;
37903;SDS011;23738;50.422;18.758;2023-07-13T06:44:19;9.20;;;8.20;;
37903;SDS011;23738;50.422;18.758;2023-07-13T06:46:49;9.80;;;7.80;;
37903;SDS011;23738;50.422;18.758;2023-07-13T06:49:18;5.40;;;4.90;;
37903;SDS011;23738;50.422;18.758;2023-07-13T06:51:47;6.00;;;5.20;;
37903;SDS011;23738;50.422;18.758;2023-07-13T06:54:16;8.50;;;6.10;;
37903;SDS011;23738;50.422;18.758;2023-07-13T06:56:46;8.40;;;5.80;;
37903;SDS011;23738;50.422;18.758;2023-07-13T06:59:15;6.10;;;5.40;;
37903;SDS011;23738;50.422;18.758;2023-07-13T07:01:44;5.80;;;5.10;;
37903;SDS011;23738;50.422;18.758;2023-07-13T07:04:14;6.80;;;4.90;;
37903;SDS011;23738;50.422;18.758;2023-07-13T07:06:43;7.20;;;4.80;;
37903;SDS011;23738;50.422;18.758;2023-07-13T07:09:13;7.90;;;4.60;;
37903;SDS011;23738;50.422;18.758;2023-07-13T07:11:43;5.40;;;4.10;;
37903;SDS011;23738;50.422;18.758;2023-07-13T07:14:12;7.80;;;3.60;;
37903;SDS011;23738;50.422;18.758;2023-07-13T07:16:41;4.10;;;3.30;;
37903;SDS011;23738;50.422;18.758;2023-07-13T07:19:11;6.30;;;3.70;;
37903;SDS011;23738;50.422;18.758;2023-07-13T07:21:41;3.50;;;2.80;;
37903;SDS011;23738;50.422;18.758;2023-07-13T07:24:10;3.50;;;2.80;;
37903;SDS011;23738;50.422;18.758;2023-07-13T07:26:39;2.80;;;2.50;;
37903;SDS011;23738;50.422;18.758;2023-07-13T07:29:09;3.60;;;3.00;;
37903;SDS011;23738;50.422;18.758;2023-07-13T07:31:38;3.50;;;2.90;;
37903;SDS011;23738;50.422;18.758;2023-07-13T07:34:08;3.90;;;2.90;;
37903;SDS011;23738;50.422;18.758;2023-07-13T07:36:37;4.60;;;4.00;;
37903;SDS011;23738;50.422;18.758;2023-07-13T07:39:07;5.40;;;4.00;;
37903;SDS011;23738;50.422;18.758;2023-07-13T07:41:36;7.50;;;5.10;;
37903;SDS011;23738;50.422;18.758;2023-07-13T07:44:05;5.00;;;4.00;;
37903;SDS011;23738;50.422;18.758;2023-07-13T07:46:36;5.20;;;4.30;;
37903;SDS011;23738;50.422;18.758;2023-07-13T07:49:07;4.50;;;4.10;;
37903;SDS011;23738;50.422;18.758;2023-07-13T07:51:36;4.40;;;3.70;;
37903;SDS011;23738;50.422;18.758;2023-07-13T07:54:06;3.30;;;3.00;;
37903;SDS011;23738;50.422;18.758;2023-07-13T07:56:36;5.10;;;3.00;;
37903;SDS011;23738;50.422;18.758;2023-07-13T07:59:14;6.10;;;3.40;;
37903;SDS011;23738;50.422;18.758;2023-07-13T08:01:44;4.70;;;3.30;;
37903;SDS011;23738;50.422;18.758;2023-07-13T08:04:14;6.00;;;3.20;;
37903;SDS011;23738;50.422;18.758;2023-07-13T08:06:43;3.70;;;3.30;;
37903;SDS011;23738;50.422;18.758;2023-07-13T08:09:13;5.30;;;3.30;;
37903;SDS011;23738;50.422;18.758;2023-07-13T08:11:42;5.80;;;3.00;;
37903;SDS011;23738;50.422;18.758;2023-07-13T08:14:11;4.10;;;2.90;;
37903;SDS011;23738;50.422;18.758;2023-07-13T08:16:41;5.20;;;3.10;;
37903;SDS011;23738;50.422;18.758;2023-07-13T08:19:11;5.70;;;3.20;;
37903;SDS011;23738;50.422;18.758;2023-07-13T08:21:40;7.50;;;3.10;;
37903;SDS011;23738;50.422;18.758;2023-07-13T08:24:10;3.80;;;3.50;;
37903;SDS011;23738;50.422;18.758;2023-07-13T08:26:40;5.00;;;3.10;;
37903;SDS011;23738;50.422;18.758;2023-07-13T08:29:09;6.10;;;3.80;;
37903;SDS011;23738;50.422;18.758;2023-07-13T08:31:39;4.00;;;3.70;;
37903;SDS011;23738;50.422;18.758;2023-07-13T08:34:08;7.20;;;4.30;;
37903;SDS011;23738;50.422;18.758;2023-07-13T08:36:37;7.60;;;5.10;;
37903;SDS011;23738;50.422;18.758;2023-07-13T08:39:07;6.90;;;4.80;;
37903;SDS011;23738;50.422;18.758;2023-07-13T08:41:36;5.10;;;4.70;;
37903;SDS011;23738;50.422;18.758;2023-07-13T08:44:07;8.80;;;5.00;;
37903;SDS011;23738;50.422;18.758;2023-07-13T08:46:48;8.60;;;5.00;;
37903;SDS011;23738;50.422;18.758;2023-07-13T08:49:21;6.60;;;4.70;;
37903;SDS011;23738;50.422;18.758;2023-07-13T08:51:53;4.60;;;4.10;;
37903;SDS011;23738;50.422;18.758;2023-07-13T08:54:29;5.40;;;4.00;;
37903;SDS011;23738;50.422;18.758;2023-07-13T08:57:03;4.70;;;4.00;;
37903;SDS011;23738;50.422;18.758;2023-07-13T08:59:40;6.00;;;3.70;;
37903;SDS011;23738;50.422;18.758;2023-07-13T09:02:16;6.00;;;3.80;;
37903;SDS011;23738;50.422;18.758;2023-07-13T09:04:54;3.70;;;3.30;;
37903;SDS011;23738;50.422;18.758;2023-07-13T09:07:34;4.10;;;3.10;;
37903;SDS011;23738;50.422;18.758;2023-07-13T09:10:15;7.00;;;2.90;;
37903;SDS011;23738;50.422;18.758;2023-07-13T09:12:53;2.80;;;2.60;;
37903;SDS011;23738;50.422;18.758;2023-07-13T09:15:34;2.50;;;2.10;;
37903;SDS011;23738;50.422;18.758;2023-07-13T09:18:09;4.70;;;2.00;;
37903;SDS011;23738;50.422;18.758;2023-07-13T09:20:44;3.00;;;1.80;;
37903;SDS011;23738;50.422;18.758;2023-07-13T09:23:17;2.50;;;1.60;;
37903;SDS011;23738;50.422;18.758;2023-07-13T09:25:49;4.10;;;1.90;;
37903;SDS011;23738;50.422;18.758;2023-07-13T09:28:24;2.90;;;1.70;;
37903;SDS011;23738;50.422;18.758;2023-07-13T09:30:58;4.30;;;1.60;;
37903;SDS011;23738;50.422;18.758;2023-07-13T09:33:32;1.40;;;1.10;;
37903;SDS011;23738;50.422;18.758;2023-07-13T09:36:05;2.30;;;1.20;;
37903;SDS011;23738;50.422;18.758;2023-07-13T09:38:48;2.60;;;1.30;;
37903;SDS011;23738;50.422;18.758;2023-07-13T09:41:28;4.80;;;1.30;;
37903;SDS011;23738;50.422;18.758;2023-07-13T09:44:10;1.70;;;1.10;;
37903;SDS011;23738;50.422;18.758;2023-07-13T09:46:43;2.00;;;1.20;;
37903;SDS011;23738;50.422;18.758;2023-07-13T09:49:14;2.00;;;1.20;;
37903;SDS011;23738;50.422;18.758;2023-07-13T09:51:43;1.80;;;0.90;;
37903;SDS011;23738;50.422;18.758;2023-07-13T09:54:18;2.10;;;1.40;;
37903;SDS011;23738;50.422;18.758;2023-07-13T09:56:51;3.80;;;1.60;;
37903;SDS011;23738;50.422;18.758;2023-07-13T09:59:26;4.80;;;1.60;;
37903;SDS011;23738;50.422;18.758;2023-07-13T10:01:56;1.70;;;1.10;;
37903;SDS011;23738;50.422;18.758;2023-07-13T10:04:29;3.10;;;1.10;;
37903;SDS011;23738;50.422;18.758;2023-07-13T10:07:07;2.50;;;0.90;;
37903;SDS011;23738;50.422;18.758;2023-07-13T10:09:40;2.00;;;0.90;;
37903;SDS011;23738;50.422;18.758;2023-07-13T10:12:14;3.20;;;1.20;;
37903;SDS011;23738;50.422;18.758;2023-07-13T10:14:44;2.90;;;1.10;;
37903;SDS011;23738;50.422;18.758;2023-07-13T10:17:14;1.90;;;1.10;;
37903;SDS011;23738;50.422;18.758;2023-07-13T10:19:46;2.70;;;1.40;;
37903;SDS011;23738;50.422;18.758;2023-07-13T10:22:19;2.50;;;1.20;;
37903;SDS011;23738;50.422;18.758;2023-07-13T10:24:55;3.30;;;1.20;;
37903;SDS011;23738;50.422;18.758;2023-07-13T10:27:26;2.40;;;1.20;;
37903;SDS011;23738;50.422;18.758;2023-07-13T10:30:01;2.60;;;1.20;;
37903;SDS011;23738;50.422;18.758;2023-07-13T10:32:40;1.90;;;0.90;;
37903;SDS011;23738;50.422;18.758;2023-07-13T10:35:10;1.70;;;1.00;;
37903;SDS011;23738;50.422;18.758;2023-07-13T10:37:45;1.40;;;1.10;;
37903;SDS011;23738;50.422;18.758;2023-07-13T10:40:21;2.00;;;1.10;;
37903;SDS011;23738;50.422;18.758;2023-07-13T10:42:56;3.10;;;1.20;;
37903;SDS011;23738;50.422;18.758;2023-07-13T10:45:31;3.40;;;1.20;;
37903;SDS011;23738;50.422;18.758;2023-07-13T10:48:03;7.10;;;1.50;;
37903;SDS011;23738;50.422;18.758;2023-07-13T10:50:38;1.50;;;1.00;;
37903;SDS011;23738;50.422;18.758;2023-07-13T10:53:22;1.60;;;1.10;;
37903;SDS011;23738;50.422;18.758;2023-07-13T10:55:59;2.20;;;1.20;;
37903;SDS011;23738;50.422;18.758;2023-07-13T10:58:35;3.20;;;1.10;;
37903;SDS011;23738;50.422;18.758;2023-07-13T11:01:11;5.20;;;1.00;;
37903;SDS011;23738;50.422;18.758;2023-07-13T11:06:27;2.20;;;0.90;;
37903;SDS011;23738;50.422;18.758;2023-07-13T11:09:18;2.30;;;1.30;;
37903;SDS011;23738;50.422;18.758;2023-07-13T11:12:06;1.50;;;1.00;;
37903;SDS011;23738;50.422;18.758;2023-07-13T11:14:44;1.90;;;1.00;;
37903;SDS011;23738;50.422;18.758;2023-07-13T11:17:47;2.00;;;1.10;;
37903;SDS011;23738;50.422;18.758;2023-07-13T11:20:22;3.20;;;1.20;;
37903;SDS011;23738;50.422;18.758;2023-07-13T11:28:31;1.20;;;1.10;;
37903;SDS011;23738;50.422;18.758;2023-07-13T11:33:53;1.70;;;1.10;;
37903;SDS011;23738;50.422;18.758;2023-07-13T11:36:28;1.20;;;0.80;;
37903;SDS011;23738;50.422;18.758;2023-07-13T11:39:04;1.70;;;0.90;;
37903;SDS011;23738;50.422;18.758;2023-07-13T11:41:45;2.10;;;0.90;;
37903;SDS011;23738;50.422;18.758;2023-07-13T11:44:18;1.80;;;1.00;;
37903;SDS011;23738;50.422;18.758;2023-07-13T11:46:50;2.50;;;1.00;;
37903;SDS011;23738;50.422;18.758;2023-07-13T11:49:22;1.40;;;1.00;;
37903;SDS011;23738;50.422;18.758;2023-07-13T11:51:53;1.70;;;0.80;;
37903;SDS011;23738;50.422;18.758;2023-07-13T11:54:28;1.30;;;0.90;;
37903;SDS011;23738;50.422;18.758;2023-07-13T11:57:00;2.40;;;1.10;;
37903;SDS011;23738;50.422;18.758;2023-07-13T11:59:36;2.40;;;1.10;;
37903;SDS011;23738;50.422;18.758;2023-07-13T12:02:13;4.50;;;1.20;;
37903;SDS011;23738;50.422;18.758;2023-07-13T12:04:45;1.30;;;1.10;;
37903;SDS011;23738;50.422;18.758;2023-07-13T12:07:15;1.50;;;1.00;;
37903;SDS011;23738;50.422;18.758;2023-07-13T12:09:46;1.30;;;0.90;;
37903;SDS011;23738;50.422;18.758;2023-07-13T12:12:18;1.30;;;0.90;;
37903;SDS011;23738;50.422;18.758;2023-07-13T12:14:52;1.10;;;1.00;;
37903;SDS011;23738;50.422;18.758;2023-07-13T12:17:23;1.40;;;1.00;;
37903;SDS011;23738;50.422;18.758;2023-07-13T12:19:53;1.60;;;1.10;;
37903;SDS011;23738;50.422;18.758;2023-07-13T12:22:22;1.40;;;0.90;;
37903;SDS011;23738;50.422;18.758;2023-07-13T12:24:52;3.60;;;1.00;;
37903;SDS011;23738;50.422;18.758;2023-07-13T12:27:24;1.00;;;0.90;;
37903;SDS011;23738;50.422;18.758;2023-07-13T12:29:59;1.80;;;1.10;;
37903;SDS011;23738;50.422;18.758;2023-07-13T12:32:31;2.60;;;1.00;;
37903;SDS011;23738;50.422;18.758;2023-07-13T12:35:07;1.70;;;1.10;;
37903;SDS011;23738;50.422;18.758;2023-07-13T12:37:43;2.20;;;1.10;;
37903;SDS011;23738;50.422;18.758;2023-07-13T12:40:14;2.10;;;1.20;;
37903;SDS011;23738;50.422;18.758;2023-07-13T12:42:46;1.80;;;1.10;;
37903;SDS011;23738;50.422;18.758;2023-07-13T12:45:19;1.10;;;1.00;;
37903;SDS011;23738;50.422;18.758;2023-07-13T12:47:52;1.50;;;1.10;;
37903;SDS011;23738;50.422;18.758;2023-07-13T12:50:29;1.90;;;1.10;;
37903;SDS011;23738;50.422;18.758;2023-07-13T12:53:11;3.00;;;0.90;;
37903;SDS011;23738;50.422;18.758;2023-07-13T12:55:43;1.10;;;0.90;;
37903;SDS011;23738;50.422;18.758;2023-07-13T12:58:16;1.10;;;1.00;;
37903;SDS011;23738;50.422;18.758;2023-07-13T13:00:52;2.00;;;0.80;;
37903;SDS011;23738;50.422;18.758;2023-07-13T13:03:26;4.10;;;0.70;;
37903;SDS011;23738;50.422;18.758;2023-07-13T13:06:01;1.20;;;0.90;;
37903;SDS011;23738;50.422;18.758;2023-07-13T13:08:32;1.40;;;1.00;;
37903;SDS011;23738;50.422;18.758;2023-07-13T13:11:03;0.90;;;0.70;;
37903;SDS011;23738;50.422;18.758;2023-07-13T13:13:33;1.10;;;0.80;;
37903;SDS011;23738;50.422;18.758;2023-07-13T13:16:04;2.40;;;1.10;;
37903;SDS011;23738;50.422;18.758;2023-07-13T13:18:37;1.50;;;1.30;;
37903;SDS011;23738;50.422;18.758;2023-07-13T13:21:06;1.60;;;1.20;;
37903;SDS011;23738;50.422;18.758;2023-07-13T13:23:36;1.20;;;1.10;;
37903;SDS011;23738;50.422;18.758;2023-07-13T13:26:08;4.30;;;1.30;;
37903;SDS011;23738;50.422;18.758;2023-07-13T13:28:39;2.30;;;1.80;;
37903;SDS011;23738;50.422;18.758;2023-07-13T13:31:10;1.70;;;1.00;;
37903;SDS011;23738;50.422;18.758;2023-07-13T13:33:41;1.70;;;0.90;;
37903;SDS011;23738;50.422;18.758;2023-07-13T13:36:16;1.40;;;1.10;;
37903;SDS011;23738;50.422;18.758;2023-07-13T13:38:48;1.40;;;1.30;;
37903;SDS011;23738;50.422;18.758;2023-07-13T13:41:18;2.60;;;1.30;;
37903;SDS011;23738;50.422;18.758;2023-07-13T13:43:47;1.70;;;1.20;;
37903;SDS011;23738;50.422;18.758;2023-07-13T13:46:18;1.70;;;1.40;;
37903;SDS011;23738;50.422;18.758;2023-07-13T13:48:51;2.40;;;1.60;;
37903;SDS011;23738;50.422;18.758;2023-07-13T13:51:21;2.10;;;1.90;;
37903;SDS011;23738;50.422;18.758;2023-07-13T13:53:51;2.20;;;2.00;;
37903;SDS011;23738;50.422;18.758;2023-07-13T13:56:21;2.30;;;2.10;;
37903;SDS011;23738;50.422;18.758;2023-07-13T13:58:50;3.80;;;2.60;;
37903;SDS011;23738;50.422;18.758;2023-07-13T14:01:20;2.10;;;1.90;;
37903;SDS011;23738;50.422;18.758;2023-07-13T14:03:50;2.70;;;2.50;;
37903;SDS011;23738;50.422;18.758;2023-07-13T14:06:20;2.50;;;2.30;;
37903;SDS011;23738;50.422;18.758;2023-07-13T14:08:49;3.40;;;2.70;;
37903;SDS011;23738;50.422;18.758;2023-07-13T14:11:20;3.10;;;2.70;;
37903;SDS011;23738;50.422;18.758;2023-07-13T14:13:49;2.10;;;2.00;;
37903;SDS011;23738;50.422;18.758;2023-07-13T14:16:22;2.70;;;2.50;;
37903;SDS011;23738;50.422;18.758;2023-07-13T14:18:56;2.20;;;2.10;;
37903;SDS011;23738;50.422;18.758;2023-07-13T14:21:27;3.50;;;3.20;;
37903;SDS011;23738;50.422;18.758;2023-07-13T14:23:57;4.20;;;2.10;;
37903;SDS011;23738;50.422;18.758;2023-07-13T14:26:26;2.40;;;2.20;;
37903;SDS011;23738;50.422;18.758;2023-07-13T14:28:59;3.30;;;1.90;;
37903;SDS011;23738;50.422;18.758;2023-07-13T14:31:29;4.00;;;1.80;;
37903;SDS011;23738;50.422;18.758;2023-07-13T14:34:00;2.50;;;2.30;;
37903;SDS011;23738;50.422;18.758;2023-07-13T14:36:44;2.00;;;1.90;;
37903;SDS011;23738;50.422;18.758;2023-07-13T14:39:16;2.00;;;1.90;;
37903;SDS011;23738;50.422;18.758;2023-07-13T14:41:49;2.00;;;1.90;;
37903;SDS011;23738;50.422;18.758;2023-07-13T14:44:22;1.40;;;1.30;;
37903;SDS011;23738;50.422;18.758;2023-07-13T14:46:55;1.50;;;1.40;;
37903;SDS011;23738;50.422;18.758;2023-07-13T14:49:27;1.30;;;1.20;;
37903;SDS011;23738;50.422;18.758;2023-07-13T14:52:00;2.90;;;1.40;;
37903;SDS011;23738;50.422;18.758;2023-07-13T14:54:33;1.80;;;1.50;;
37903;SDS011;23738;50.422;18.758;2023-07-13T14:57:02;1.60;;;1.30;;
37903;SDS011;23738;50.422;18.758;2023-07-13T14:59:35;2.30;;;1.60;;
37903;SDS011;23738;50.422;18.758;2023-07-13T15:02:08;2.70;;;1.50;;
37903;SDS011;23738;50.422;18.758;2023-07-13T15:04:44;1.30;;;1.20;;
37903;SDS011;23738;50.422;18.758;2023-07-13T15:07:14;1.40;;;1.30;;
37903;SDS011;23738;50.422;18.758;2023-07-13T15:09:45;1.70;;;1.40;;